Impacts METAR Board
IDs:

KACT - Waco Rgnl, TX, US

Updated at: 0800 UTC 30 Oct 2020
Potential Impact None Slight Moderate High
Time 29/20Z 29/21Z 29/22Z 29/23Z 30/00Z 30/01Z 30/02Z 30/03Z 30/04Z 30/05Z 30/06Z 30/07Z 30/08Z
Temp53 56 57 57 54 51 45 45 45 44 46 44 44
Dewpt40 41 42 43 43 43 41 41 41 40 41 39 39
Altim30.16 30.15 30.16 30.16 30.18 30.19 30.21 30.23 30.24 30.26 30.27 30.27 30.27
VIS10 10 10 10 10 10 10 10 10 10 10 10 10
CIG30 38 41 -- -- -- -- -- -- -- -- -- --
CoverOVCOVCOVCSCTCLRCLRCLRCLRCLRCLRCLRCLRCLR
FltCatMVFRVFRVFRVFRVFRVFRVFRVFRVFRVFRVFRVFRVFR
WX--------------------------
WDir300310290300320320280300340330320310330
WSpd14 12 13 13 7 5 5 5 4 5 6 5 8
WGst22 19 21 -- -- -- -- -- -- -- -- -- --
Raw hourly METARs
KACT 291951Z 30014G22KT 10SM OVC030 12/04 A3016 RMK AO2 SLP211 T01170044
KACT 292051Z 31012G19KT 10SM OVC038 13/05 A3015 RMK AO2 SLP210 T01330050 56003
KACT 292151Z 29013G21KT 10SM OVC041 14/06 A3016 RMK AO2 SLP212 T01390056
KACT 292251Z 30013KT 10SM SCT043 14/06 A3016 RMK AO2 SLP212 T01390061
KACT 292351Z 32007KT 10SM CLR 12/06 A3018 RMK AO2 SLP217 T01220061 10144 20100 53008
KACT 300051Z 32005KT 10SM CLR 11/06 A3019 RMK AO2 SLP223 T01060061
KACT 300151Z 28005KT 10SM CLR 07/05 A3021 RMK AO2 SLP230 T00720050
KACT 300251Z 30005KT 10SM CLR 07/05 A3023 RMK AO2 SLP236 T00720050 53018
KACT 300351Z 34004KT 10SM CLR 07/05 A3024 RMK AO2 SLP241 T00720050
KACT 300451Z 33005KT 10SM CLR 07/04 A3026 RMK AO2 SLP247 T00670044
KACT 300551Z 32006KT 10SM CLR 08/05 A3027 RMK AO2 SLP249 T00780050 10122 20067 401440033 51013
KACT 300651Z 31005KT 10SM CLR 07/04 A3027 RMK AO2 SLP251 T00670039
KACT 300751Z 33008KT 10SM CLR 07/04 A3027 RMK AO2 SLP251 T00670039



Page loaded:  08:24 UTC  |   01:24 AM Pacific  |   02:24 AM Mountain  |   03:24 AM Central  |   04:24 AM Eastern

 

ADVISORIES

FORECASTS

FORECASTS

OBSERVATIONS

USER TOOLS

ABOUT US